Terminal Aerodrome Forecast
Issued by NWS

Home | Current Version | Previous Version | Graphics & Text | Print | Product List | Glossary On
Versions: 1 2 3 4 5 6 7 8 9 10 11 12 13 14 15 16 17 18 19 20 21 22 23 24 25
000
FTUS43 KLOT 270755 AAA
TAFGYY
TAF AMD
KGYY 270755Z 2708/2806 03006KT P6SM BKN008
      TEMPO 2709/2711 SCT008 BKN030
     FM271600 01004KT P6SM SCT008
     FM271900 04006KT P6SM FEW035 SCT150
     FM280400 09006KT P6SM BKN120=

USA.gov is the U.S. government's official web portal to all federal, state and local government web resources and services.